Adams, MA

8:05 AM EDT on May 28, 2015 (GMT -0400)
Craig-Smith Farm East Cheshire | | Change Station
CLOSE
Current Station
Personal Weather Station
Location: Cheshire, MA
Elevation: 1427 ft
Nearby Weather Stations

Elev 1427 ft 42.57 °N, 73.10 °W | Updated 33 seconds ago

Partly Cloudy
Partly Cloudy
69.1 °F
Feels Like 69.1 °F
N
6.9
Wind Variable Wind from SE
Gusts 7.6 mph

Today
High -- | Low -- °F
--% Chance of Precip.
Yesterday
High -- | Low -- °F
Precip. -- in
5:19 AM 8:20 PM
Waxing Gibbous, 75% visible
Pressure 30.11 in
Visibility 8.0 miles
Clouds Clear
Dew Point 67 °F
Humidity 92%
Rainfall 0.00 in
Snow Depth Not available.
UV 2 out of 12
Pollen 9.40 out of 12
Air Quality Not available.
Flu Activity Local Activity
METAR KAQW 281152Z AUTO VRB03KT 8SM CLR 21/18 A3012 RMK AO2 SLP196 70040 T02060183 10206 20156 50004

More Conditions Fewer Conditions

Pressure 30.11 in
Visibility 8.0 miles
Clouds Clear
Dew Point 67 °F
Humidity 92%
Rainfall 0.00 in
Snow Depth Not available.
UV 2 out of 12
Pollen 9.40 out of 12
Air Quality Not available.
Flu Activity Local Activity
METAR KAQW 281152Z AUTO VRB03KT 8SM CLR 21/18 A3012 RMK AO2 SLP196 70040 T02060183 10206 20156 50004

More Conditions Fewer Conditions

10-Day Weather Forecast

Almanac

Astronomy

May. 28, 2015 Rise Set
Actual Time
Civil Twilight
Nautical Twilight
Astronomical Twilight
Moon
Length of Visible Light
Length of Day
Tomorrow will be .
, % of the Moon is Illuminated

Today's Extremes

State Highs State Lows

Community

WunderPhotos

Upload Photos

1,824,961 photos uploaded!

WunderBlogs® & News

Nearby

Air Quality

  Air Quality AQ Index Pollutant
Not available.

Snow Depth

Station Depth Elevation

Earthquake Activity

City Distance Mag. Time & Date
Minimum magnitude displayed is 2.5.

Coastal Water Temperatures

Place Temperature

Stations

Nearby Weather Stations

Station Location Temp. Windchill Dew Point Humidity Wind Precip. Elev Updated Type